TimeCET,TemperatureF,Dew PointF,Humidity,Sea Level PressureIn,VisibilityMPH,Wind Direction,Wind SpeedMPH,Gust SpeedMPH,PrecipitationIn,Events,Conditions,WindDirDegrees,DateUTC
12:15 AM,32.0,32.0,100,29.74,5.0,Calm,Calm,-,N/A,,Unknown,0,2012-12-05 23:15:00
12:45 AM,30.2,30.2,100,29.74,5.0,Calm,Calm,-,N/A,,Unknown,0,2012-12-05 23:45:00
1:15 AM,30.2,30.2,100,29.74,3.7,SE,4.5,-,N/A,,Unknown,140,2012-12-06 00:15:00
1:44 AM,30.2,30.2,100,29.74,3.1,Calm,Calm,-,N/A,,Scattered Clouds,0,2012-12-06 00:44:00
1:45 AM,30.2,30.2,100,29.74,3.1,SSE,2.2,-,N/A,,Scattered Clouds,150,2012-12-06 00:45:00
2:15 AM,28.4,28.4,100,29.74,2.5,South,4.5,-,N/A,,Scattered Clouds,170,2012-12-06 01:15:00
2:45 AM,28.4,28.4,100,29.74,2.2,South,2.2,-,N/A,,Partly Cloudy,180,2012-12-06 01:45:00
2:58 AM,28.4,28.4,100,29.74,1.9,South,2.2,-,N/A,,Partly Cloudy,170,2012-12-06 01:58:00
3:15 AM,26.6,26.6,100,29.74,1.9,South,2.2,-,N/A,,Partly Cloudy,190,2012-12-06 02:15:00
3:45 AM,26.6,26.6,100,29.74,1.9,South,2.2,-,N/A,,Partly Cloudy,170,2012-12-06 02:45:00
4:15 AM,24.8,24.8,100,29.74,1.9,SE,2.2,-,N/A,,Partly Cloudy,130,2012-12-06 03:15:00
4:45 AM,24.8,24.8,100,29.74,1.9,SE,2.2,-,N/A,,Partly Cloudy,140,2012-12-06 03:45:00
5:15 AM,24.8,24.8,100,29.74,1.9,SE,2.2,-,N/A,,Partly Cloudy,140,2012-12-06 04:15:00
5:45 AM,-9999,-9999,N/A,-9999,3.1,SSW,6.7,-,N/A,,Mostly Cloudy,200,2012-12-06 04:45:00
6:11 AM,24.8,24.8,100,29.74,2.5,SE,4.5,-,N/A,,Scattered Clouds,130,2012-12-06 05:11:00
6:15 AM,24.8,24.8,100,29.74,2.5,SE,2.2,-,N/A,,Scattered Clouds,130,2012-12-06 05:15:00
6:45 AM,23.0,23.0,100,29.77,2.8,SE,2.2,-,N/A,,Scattered Clouds,130,2012-12-06 05:45:00
6:57 AM,23.0,23.0,100,29.77,3.7,Calm,Calm,-,N/A,,Unknown,0,2012-12-06 05:57:00
7:15 AM,23.0,23.0,100,29.77,3.7,Calm,Calm,-,N/A,,Unknown,0,2012-12-06 06:15:00
7:45 AM,23.0,23.0,100,29.77,3.7,WSW,2.2,-,N/A,,Unknown,250,2012-12-06 06:45:00
8:15 AM,26.6,26.6,100,29.80,3.7,SSW,2.2,-,N/A,,Unknown,210,2012-12-06 07:15:00
8:45 AM,-9999,-9999,N/A,-9999,3.1,Variable,4.5,-,N/A,,Unknown,0,2012-12-06 07:45:00
8:56 AM,30.2,30.2,100,29.80,1.9,Calm,Calm,-,N/A,,Scattered Clouds,0,2012-12-06 07:56:00
9:15 AM,32.0,32.0,100,29.80,2.5,SW,2.2,-,N/A,,Scattered Clouds,220,2012-12-06 08:15:00
9:32 AM,32.0,32.0,100,29.80,3.1,South,4.5,-,N/A,,Partly Cloudy,180,2012-12-06 08:32:00
10:15 AM,33.8,33.8,100,29.80,3.7,SSW,6.7,-,N/A,,Unknown,210,2012-12-06 09:15:00
10:45 AM,35.6,33.8,93,29.80,5.0,SSW,6.7,-,N/A,,Unknown,210,2012-12-06 09:45:00
11:15 AM,37.4,33.8,87,29.80,-9999.0,SW,8.9,-,N/A,,Clear,230,2012-12-06 10:15:00
11:45 AM,-9999,-9999,N/A,-9999,3.1,WSW,8.9,-,N/A,,Unknown,240,2012-12-06 10:45:00
12:15 PM,37.4,33.8,87,29.80,6.2,WSW,6.7,-,N/A,,Scattered Clouds,250,2012-12-06 11:15:00
12:45 PM,37.4,32.0,81,29.80,6.2,WSW,6.7,-,N/A,,Partly Cloudy,240,2012-12-06 11:45:00
1:15 PM,37.4,33.8,87,29.80,6.2,WSW,6.7,-,N/A,,Mostly Cloudy,250,2012-12-06 12:15:00
1:45 PM,35.6,33.8,93,29.80,6.2,WSW,6.7,-,N/A,,Mostly Cloudy,240,2012-12-06 12:45:00
2:15 PM,33.8,32.0,93,29.83,3.7,West,6.7,-,N/A,,Overcast,260,2012-12-06 13:15:00
2:44 PM,33.8,33.8,100,29.83,3.1,WSW,4.5,-,N/A,,Overcast,240,2012-12-06 13:44:00
2:45 PM,-9999,-9999,N/A,-9999,3.7,WNW,8.9,-,N/A,,Mostly Cloudy,300,2012-12-06 13:45:00
3:15 PM,33.8,33.8,100,29.86,3.1,SSW,4.5,-,N/A,,Scattered Clouds,200,2012-12-06 14:15:00
3:45 PM,33.8,33.8,100,29.86,2.5,WSW,4.5,-,N/A,,Scattered Clouds,250,2012-12-06 14:45:00
4:15 PM,33.8,33.8,100,29.89,2.5,West,4.5,-,N/A,,Mostly Cloudy,260,2012-12-06 15:15:00
4:38 PM,32.0,32.0,100,29.89,1.2,SSW,2.2,-,N/A,,Mostly Cloudy,200,2012-12-06 15:38:00
4:45 PM,32.0,32.0,100,29.89,1.2,WSW,4.5,-,N/A,,Mostly Cloudy,240,2012-12-06 15:45:00
5:15 PM,30.2,30.2,100,29.89,1.2,West,4.5,-,N/A,,Mostly Cloudy,260,2012-12-06 16:15:00
5:42 PM,30.2,30.2,100,29.92,3.1,NNW,6.7,-,N/A,,Mostly Cloudy,340,2012-12-06 16:42:00
5:45 PM,-9999,-9999,N/A,-9999,3.1,WNW,4.5,-,N/A,,Mostly Cloudy,300,2012-12-06 16:45:00
6:15 PM,32.0,30.2,93,29.92,2.5,North,4.5,-,N/A,,Mostly Cloudy,360,2012-12-06 17:15:00
6:45 PM,30.2,28.4,93,29.95,-9999.0,North,4.5,-,N/A,,Clear,360,2012-12-06 17:45:00
7:15 PM,32.0,26.6,80,29.95,-9999.0,NNW,8.9,-,N/A,,Clear,330,2012-12-06 18:15:00
7:45 PM,32.0,24.8,75,29.95,-9999.0,NNW,8.9,-,N/A,,Clear,330,2012-12-06 18:45:00
8:15 PM,30.2,24.8,80,29.98,-9999.0,NNW,6.7,-,N/A,,Clear,330,2012-12-06 19:15:00
8:45 PM,-9999,-9999,N/A,-9999,6.2,NNW,6.7,-,N/A,,Clear,330,2012-12-06 19:45:00
9:15 PM,30.2,24.8,80,29.98,-9999.0,NW,8.9,-,N/A,,Clear,320,2012-12-06 20:15:00
9:45 PM,28.4,23.0,80,29.98,-9999.0,NNW,6.7,-,N/A,,Clear,330,2012-12-06 20:45:00
10:15 PM,26.6,23.0,86,29.98,-9999.0,NNW,4.5,-,N/A,,Clear,340,2012-12-06 21:15:00
10:45 PM,26.6,23.0,86,30.01,-9999.0,NNW,4.5,-,N/A,,Clear,340,2012-12-06 21:45:00
11:15 PM,28.4,23.0,80,30.01,-9999.0,NW,6.7,-,N/A,,Clear,320,2012-12-06 22:15:00
11:45 PM,-9999,-9999,N/A,-9999,6.2,North,-9999.0,-,N/A,,Scattered Clouds,0,2012-12-06 22:45:00